Northport NY Webcam more information Northport NY Webcam


Visit our other weather sites:

Template documentation
and downloads

And another site



Nearby METAR Reports


Warning: A non-numeric value encountered in /home/portan24/public_html/weather28/metar/wsMetarTxt.php on line 608

Warning: A non-numeric value encountered in /home/portan24/public_html/weather28/metar/wsMetarTxt.php on line 608

Warning: A non-numeric value encountered in /home/portan24/public_html/weather28/metar/wsMetarTxt.php on line 608

Warning: A non-numeric value encountered in /home/portan24/public_html/weather28/metar/wsMetarTxt.php on line 608

Warning: A non-numeric value encountered in /home/portan24/public_html/weather28/metar/wsMetarTxt.php on line 608
   
EBBR - Brussels International Airport, Belgium
Distance from station: W 9 mi
Updated: Apr 22 2018 2:20 am
Partly Cloudy  
Partly Cloudy  
   Wind: SSW 5.8 mph
Wind: SSW 5.8 mph
Temperature: 59°F
Dew Point: 53.6°F
Humidity: 82%
Barometer: 29.91 inHg
Clouds: Partly Cloudy
Visibility: 6 mi
Cloud details: Partly Cloudy m
EBBR 220620Z 20005KT 9000 NSC 15/12 Q1013 NOSIG
EBBE - Beauvechain (Bevekom), Belgium
Distance from station: SSE 10 mi
Updated: Apr 22 2018 2:25 am
Partly Cloudy  
Partly Cloudy  
   Wind: SW 4.6 mph
Wind: SW 4.6 mph
Temperature: 59°F
Dew Point: 51.8°F
Humidity: 77%
Barometer: 29.91 inHg
Clouds: Partly Cloudy
Visibility: 5 mi
Cloud details: Partly Cloudy 7315 m
EBBE 220625Z 22004KT 8000 SCT240 15/11 Q1013 BLU BLU TEMPO WHT
EBDT - Schaffen, Belgium
Distance from station: ENE 18 mi
Updated: Apr 22 2018 2:25 am
Clear  
Clear  
   Wind: South 4.6 mph
Wind: South 4.6 mph
Temperature: 57.2°F
Dew Point: 51.8°F
Humidity: 82%
Barometer: 29.91 inHg
Clouds: Clear
Visibility: 5 mi
Cloud details: Clear m
EBDT 220625Z AUTO 17004KT 8000 NCD 14/11 Q1013 BLU
EBAW - Antwerp/Deurne, Belgium
Distance from station: NNW 23 mi
Updated: Apr 22 2018 2:20 am
Partly Cloudy  
Partly Cloudy  
   Wind: varies 2.3 mph
Wind: varies 2.3 mph
Temperature: 57.2°F
Dew Point: 50°F
Humidity: 77%
Barometer: 29.91 inHg
Clouds: Partly Cloudy
Visibility: 5 mi
Cloud details: Partly Cloudy m
EBAW 220620Z VRB02KT 8000 NSC 14/10 Q1013 NOSIG
EBCI - Charleroi/Gosselies, Belgium
Distance from station: SSW 32 mi
Updated: Apr 22 2018 2:20 am
Few Clouds  
Few Clouds  
   Wind: SW 4.6 mph
Wind: SW 4.6 mph
Temperature: 59°F
Dew Point: 51.8°F
Humidity: 77%
Barometer: 29.94 inHg
Clouds: Few Clouds
Visibility: More than 6 mi
Cloud details: Few Clouds 610 m
EBCI 220620Z 23004KT 9999 FEW020 15/11 Q1014 TEMPO 4000 -TSRA
EBLG - Bierset/Liege, Belgium
Distance from station: ESE 38 mi
Updated: Apr 22 2018 2:20 am
Clear  
Clear  
   Wind: South 5.8 mph
Wind: South 5.8 mph
Temperature: 62.6°F
Dew Point: 50°F
Humidity: 64%
Barometer: 29.94 inHg
Visibility: More than 6 mi
Cloud details: Clear m
EBLG 220620Z 17005KT CAVOK 17/10 Q1014 NOSIG

Script developed by  Saratoga-weather.org Adapted for the template by  Weerstation Leuven

You find our weather info also at:

Weather Underground

AWEKAS

Citizen Weather Observer Program (CWOP)

Equipment we use:

Weather-station
Davis VP2

Davis VP2